sensor_id;sensor_type;location;lat;lon;timestamp;temperature;humidity
41924;DHT22;27613;48.116;11.656;2022-07-10T00:00:47;18.50;89.10
41924;DHT22;27613;48.116;11.656;2022-07-10T00:03:13;18.50;88.30
41924;DHT22;27613;48.116;11.656;2022-07-10T00:05:39;18.40;88.10
41924;DHT22;27613;48.116;11.656;2022-07-10T00:08:04;18.40;88.20
41924;DHT22;27613;48.116;11.656;2022-07-10T00:10:30;18.40;88.40
41924;DHT22;27613;48.116;11.656;2022-07-10T00:12:56;18.40;88.60
41924;DHT22;27613;48.116;11.656;2022-07-10T00:15:22;18.40;88.30
41924;DHT22;27613;48.116;11.656;2022-07-10T00:17:47;18.40;89.00
41924;DHT22;27613;48.116;11.656;2022-07-10T00:20:14;18.40;88.50
41924;DHT22;27613;48.116;11.656;2022-07-10T00:22:40;18.30;89.70
41924;DHT22;27613;48.116;11.656;2022-07-10T00:25:08;18.20;89.60
41924;DHT22;27613;48.116;11.656;2022-07-10T00:27:34;18.30;88.90
41924;DHT22;27613;48.116;11.656;2022-07-10T00:30:00;18.20;90.10
41924;DHT22;27613;48.116;11.656;2022-07-10T00:32:26;18.20;90.40
41924;DHT22;27613;48.116;11.656;2022-07-10T00:34:52;18.10;91.30
41924;DHT22;27613;48.116;11.656;2022-07-10T00:37:18;18.00;92.70
41924;DHT22;27613;48.116;11.656;2022-07-10T00:39:46;17.90;93.10
41924;DHT22;27613;48.116;11.656;2022-07-10T00:42:13;17.80;93.90
41924;DHT22;27613;48.116;11.656;2022-07-10T00:44:43;17.80;95.90
41924;DHT22;27613;48.116;11.656;2022-07-10T00:47:10;17.50;99.90
41924;DHT22;27613;48.116;11.656;2022-07-10T00:49:38;17.40;99.90
41924;DHT22;27613;48.116;11.656;2022-07-10T00:52:07;17.10;99.90
41924;DHT22;27613;48.116;11.656;2022-07-10T00:54:34;17.10;99.90
41924;DHT22;27613;48.116;11.656;2022-07-10T00:57:01;17.00;99.90
41924;DHT22;27613;48.116;11.656;2022-07-10T00:59:28;17.00;99.90
41924;DHT22;27613;48.116;11.656;2022-07-10T01:01:54;16.80;99.90
41924;DHT22;27613;48.116;11.656;2022-07-10T01:04:20;16.80;99.90
41924;DHT22;27613;48.116;11.656;2022-07-10T01:06:46;16.70;99.90
41924;DHT22;27613;48.116;11.656;2022-07-10T01:09:12;16.70;99.90
41924;DHT22;27613;48.116;11.656;2022-07-10T01:11:37;16.40;99.90
41924;DHT22;27613;48.116;11.656;2022-07-10T01:14:04;16.50;99.90
41924;DHT22;27613;48.116;11.656;2022-07-10T01:16:30;16.50;99.90
41924;DHT22;27613;48.116;11.656;2022-07-10T01:18:57;16.50;99.90
41924;DHT22;27613;48.116;11.656;2022-07-10T01:21:24;16.50;99.90
41924;DHT22;27613;48.116;11.656;2022-07-10T01:23:50;16.60;99.90
41924;DHT22;27613;48.116;11.656;2022-07-10T01:26:16;16.60;99.90
41924;DHT22;27613;48.116;11.656;2022-07-10T01:28:42;16.40;99.90
41924;DHT22;27613;48.116;11.656;2022-07-10T01:31:08;16.50;99.90
41924;DHT22;27613;48.116;11.656;2022-07-10T01:33:34;16.40;99.90
41924;DHT22;27613;48.116;11.656;2022-07-10T01:35:59;16.30;99.90
41924;DHT22;27613;48.116;11.656;2022-07-10T01:38:25;16.30;99.90
41924;DHT22;27613;48.116;11.656;2022-07-10T01:40:50;16.20;99.90
41924;DHT22;27613;48.116;11.656;2022-07-10T01:43:16;16.20;99.90
41924;DHT22;27613;48.116;11.656;2022-07-10T01:45:42;16.30;99.90
41924;DHT22;27613;48.116;11.656;2022-07-10T01:48:08;16.30;99.90
41924;DHT22;27613;48.116;11.656;2022-07-10T01:50:34;16.40;99.90
41924;DHT22;27613;48.116;11.656;2022-07-10T01:53:00;16.30;99.90
41924;DHT22;27613;48.116;11.656;2022-07-10T01:55:25;16.20;99.90
41924;DHT22;27613;48.116;11.656;2022-07-10T01:57:51;16.20;99.90
41924;DHT22;27613;48.116;11.656;2022-07-10T02:00:16;16.30;99.90
41924;DHT22;27613;48.116;11.656;2022-07-10T02:02:42;16.30;99.90
41924;DHT22;27613;48.116;11.656;2022-07-10T02:05:28;16.20;99.90
41924;DHT22;27613;48.116;11.656;2022-07-10T02:07:53;16.20;99.90
41924;DHT22;27613;48.116;11.656;2022-07-10T02:10:19;16.20;99.90
41924;DHT22;27613;48.116;11.656;2022-07-10T02:12:45;16.10;99.90
41924;DHT22;27613;48.116;11.656;2022-07-10T02:15:10;16.00;99.90
41924;DHT22;27613;48.116;11.656;2022-07-10T02:17:36;15.90;99.90
41924;DHT22;27613;48.116;11.656;2022-07-10T02:20:02;15.80;99.90
41924;DHT22;27613;48.116;11.656;2022-07-10T02:22:27;15.80;99.90
41924;DHT22;27613;48.116;11.656;2022-07-10T02:24:53;15.90;99.90
41924;DHT22;27613;48.116;11.656;2022-07-10T02:27:18;16.00;99.90
41924;DHT22;27613;48.116;11.656;2022-07-10T02:29:44;16.00;99.90
41924;DHT22;27613;48.116;11.656;2022-07-10T02:32:09;16.10;99.90
41924;DHT22;27613;48.116;11.656;2022-07-10T02:34:35;16.00;99.90
41924;DHT22;27613;48.116;11.656;2022-07-10T02:37:00;15.70;99.90
41924;DHT22;27613;48.116;11.656;2022-07-10T02:39:26;15.80;99.90
41924;DHT22;27613;48.116;11.656;2022-07-10T02:41:51;15.70;99.90
41924;DHT22;27613;48.116;11.656;2022-07-10T02:44:17;15.70;99.90
41924;DHT22;27613;48.116;11.656;2022-07-10T02:46:42;15.70;99.90
41924;DHT22;27613;48.116;11.656;2022-07-10T02:49:08;15.70;99.90
41924;DHT22;27613;48.116;11.656;2022-07-10T02:51:34;15.70;99.90
41924;DHT22;27613;48.116;11.656;2022-07-10T02:53:59;15.70;99.90
41924;DHT22;27613;48.116;11.656;2022-07-10T02:56:25;15.70;99.90
41924;DHT22;27613;48.116;11.656;2022-07-10T02:58:50;15.70;99.90
41924;DHT22;27613;48.116;11.656;2022-07-10T03:01:16;15.50;99.90
41924;DHT22;27613;48.116;11.656;2022-07-10T03:03:41;15.50;99.90
41924;DHT22;27613;48.116;11.656;2022-07-10T03:06:07;15.50;99.90
41924;DHT22;27613;48.116;11.656;2022-07-10T03:08:33;15.50;99.90
41924;DHT22;27613;48.116;11.656;2022-07-10T03:10:58;15.50;99.90
41924;DHT22;27613;48.116;11.656;2022-07-10T03:13:24;15.60;99.90
41924;DHT22;27613;48.116;11.656;2022-07-10T03:15:50;15.60;99.90
41924;DHT22;27613;48.116;11.656;2022-07-10T03:18:18;15.40;99.90
41924;DHT22;27613;48.116;11.656;2022-07-10T03:20:44;15.50;99.90
41924;DHT22;27613;48.116;11.656;2022-07-10T03:23:09;15.50;99.90
41924;DHT22;27613;48.116;11.656;2022-07-10T03:25:35;15.30;99.90
41924;DHT22;27613;48.116;11.656;2022-07-10T03:28:00;15.30;99.90
41924;DHT22;27613;48.116;11.656;2022-07-10T03:30:26;15.20;99.90
41924;DHT22;27613;48.116;11.656;2022-07-10T03:32:51;15.20;99.90
41924;DHT22;27613;48.116;11.656;2022-07-10T03:35:17;15.20;99.90
41924;DHT22;27613;48.116;11.656;2022-07-10T03:37:42;15.10;99.90
41924;DHT22;27613;48.116;11.656;2022-07-10T03:40:09;15.10;99.90
41924;DHT22;27613;48.116;11.656;2022-07-10T03:42:34;15.10;99.90
41924;DHT22;27613;48.116;11.656;2022-07-10T03:45:00;15.00;99.90
41924;DHT22;27613;48.116;11.656;2022-07-10T03:47:25;14.90;99.90
41924;DHT22;27613;48.116;11.656;2022-07-10T03:49:51;14.80;99.90
41924;DHT22;27613;48.116;11.656;2022-07-10T03:52:17;14.80;99.90
41924;DHT22;27613;48.116;11.656;2022-07-10T03:54:42;14.70;99.90
41924;DHT22;27613;48.116;11.656;2022-07-10T03:57:08;14.80;99.90
41924;DHT22;27613;48.116;11.656;2022-07-10T03:59:52;14.80;99.90
41924;DHT22;27613;48.116;11.656;2022-07-10T04:02:18;14.80;99.90
41924;DHT22;27613;48.116;11.656;2022-07-10T04:04:43;14.80;99.90
41924;DHT22;27613;48.116;11.656;2022-07-10T04:07:09;14.80;99.90
41924;DHT22;27613;48.116;11.656;2022-07-10T04:09:36;14.90;99.90
41924;DHT22;27613;48.116;11.656;2022-07-10T04:12:01;15.00;99.90
41924;DHT22;27613;48.116;11.656;2022-07-10T04:14:27;14.90;99.90
41924;DHT22;27613;48.116;11.656;2022-07-10T04:16:53;15.00;99.90
41924;DHT22;27613;48.116;11.656;2022-07-10T04:19:18;15.00;99.90
41924;DHT22;27613;48.116;11.656;2022-07-10T04:21:44;15.00;99.90
41924;DHT22;27613;48.116;11.656;2022-07-10T04:24:10;15.10;99.90
41924;DHT22;27613;48.116;11.656;2022-07-10T04:26:35;15.10;99.90
41924;DHT22;27613;48.116;11.656;2022-07-10T04:29:01;15.10;99.90
41924;DHT22;27613;48.116;11.656;2022-07-10T04:31:26;15.10;99.90
41924;DHT22;27613;48.116;11.656;2022-07-10T04:33:52;15.30;99.90
41924;DHT22;27613;48.116;11.656;2022-07-10T04:36:17;15.30;99.90
41924;DHT22;27613;48.116;11.656;2022-07-10T04:38:43;15.30;99.90
41924;DHT22;27613;48.116;11.656;2022-07-10T04:41:09;15.40;99.90
41924;DHT22;27613;48.116;11.656;2022-07-10T04:43:35;15.40;99.90
41924;DHT22;27613;48.116;11.656;2022-07-10T04:46:01;15.40;99.90
41924;DHT22;27613;48.116;11.656;2022-07-10T04:48:27;15.40;99.90
41924;DHT22;27613;48.116;11.656;2022-07-10T04:50:52;15.40;99.90
41924;DHT22;27613;48.116;11.656;2022-07-10T04:53:18;15.40;99.90
41924;DHT22;27613;48.116;11.656;2022-07-10T04:55:44;15.40;99.90
41924;DHT22;27613;48.116;11.656;2022-07-10T04:58:09;15.40;99.90
41924;DHT22;27613;48.116;11.656;2022-07-10T05:00:35;15.40;99.90
41924;DHT22;27613;48.116;11.656;2022-07-10T05:03:00;15.50;99.90
41924;DHT22;27613;48.116;11.656;2022-07-10T05:05:26;15.40;99.90
41924;DHT22;27613;48.116;11.656;2022-07-10T05:07:51;15.40;99.90
41924;DHT22;27613;48.116;11.656;2022-07-10T05:10:17;15.50;99.90
41924;DHT22;27613;48.116;11.656;2022-07-10T05:12:42;15.50;99.90
41924;DHT22;27613;48.116;11.656;2022-07-10T05:15:08;15.50;99.90
41924;DHT22;27613;48.116;11.656;2022-07-10T05:17:34;15.60;99.90
41924;DHT22;27613;48.116;11.656;2022-07-10T05:20:00;15.60;99.90
41924;DHT22;27613;48.116;11.656;2022-07-10T05:22:25;15.60;99.90
41924;DHT22;27613;48.116;11.656;2022-07-10T05:24:51;15.70;99.90
41924;DHT22;27613;48.116;11.656;2022-07-10T05:27:17;15.80;99.90
41924;DHT22;27613;48.116;11.656;2022-07-10T05:29:45;15.80;99.90
41924;DHT22;27613;48.116;11.656;2022-07-10T05:32:11;15.80;99.90
41924;DHT22;27613;48.116;11.656;2022-07-10T05:34:36;15.70;99.90
41924;DHT22;27613;48.116;11.656;2022-07-10T05:37:02;15.70;99.90
41924;DHT22;27613;48.116;11.656;2022-07-10T05:39:28;15.90;99.90
41924;DHT22;27613;48.116;11.656;2022-07-10T05:41:53;16.00;99.90
41924;DHT22;27613;48.116;11.656;2022-07-10T05:44:21;16.00;99.90
41924;DHT22;27613;48.116;11.656;2022-07-10T05:46:46;15.80;99.90
41924;DHT22;27613;48.116;11.656;2022-07-10T05:49:12;15.80;99.90
41924;DHT22;27613;48.116;11.656;2022-07-10T05:51:38;15.70;99.90
41924;DHT22;27613;48.116;11.656;2022-07-10T05:54:03;15.80;99.90
41924;DHT22;27613;48.116;11.656;2022-07-10T05:56:30;15.70;99.90
41924;DHT22;27613;48.116;11.656;2022-07-10T05:58:56;15.70;99.90
41924;DHT22;27613;48.116;11.656;2022-07-10T06:01:22;15.80;99.90
41924;DHT22;27613;48.116;11.656;2022-07-10T06:03:48;15.70;99.90
41924;DHT22;27613;48.116;11.656;2022-07-10T06:06:14;15.70;99.90
41924;DHT22;27613;48.116;11.656;2022-07-10T06:08:43;15.80;99.90
41924;DHT22;27613;48.116;11.656;2022-07-10T06:11:09;16.00;99.90
41924;DHT22;27613;48.116;11.656;2022-07-10T06:13:36;16.00;99.90
41924;DHT22;27613;48.116;11.656;2022-07-10T06:16:02;16.10;99.90
41924;DHT22;27613;48.116;11.656;2022-07-10T06:18:29;16.20;99.90
41924;DHT22;27613;48.116;11.656;2022-07-10T06:20:55;16.20;99.90
41924;DHT22;27613;48.116;11.656;2022-07-10T06:23:20;16.30;99.90
41924;DHT22;27613;48.116;11.656;2022-07-10T06:25:46;16.50;99.90
41924;DHT22;27613;48.116;11.656;2022-07-10T06:28:14;16.50;99.90
41924;DHT22;27613;48.116;11.656;2022-07-10T06:30:39;16.70;99.90
41924;DHT22;27613;48.116;11.656;2022-07-10T06:33:05;16.60;99.90
41924;DHT22;27613;48.116;11.656;2022-07-10T06:35:30;16.60;99.90
41924;DHT22;27613;48.116;11.656;2022-07-10T06:37:56;16.60;99.90
41924;DHT22;27613;48.116;11.656;2022-07-10T06:40:21;16.50;99.90
41924;DHT22;27613;48.116;11.656;2022-07-10T06:42:47;16.60;99.90
41924;DHT22;27613;48.116;11.656;2022-07-10T06:45:13;16.70;99.90
41924;DHT22;27613;48.116;11.656;2022-07-10T06:47:39;16.90;99.90
41924;DHT22;27613;48.116;11.656;2022-07-10T06:50:28;16.70;99.90
41924;DHT22;27613;48.116;11.656;2022-07-10T06:52:58;17.10;99.90
41924;DHT22;27613;48.116;11.656;2022-07-10T06:55:25;17.30;99.90
41924;DHT22;27613;48.116;11.656;2022-07-10T06:57:51;17.50;99.90
41924;DHT22;27613;48.116;11.656;2022-07-10T07:00:16;17.50;99.90
41924;DHT22;27613;48.116;11.656;2022-07-10T07:02:42;17.30;99.90
41924;DHT22;27613;48.116;11.656;2022-07-10T07:05:08;17.20;99.90
41924;DHT22;27613;48.116;11.656;2022-07-10T07:07:34;17.40;99.90
41924;DHT22;27613;48.116;11.656;2022-07-10T07:10:01;17.50;99.90
41924;DHT22;27613;48.116;11.656;2022-07-10T07:12:26;17.50;99.90
41924;DHT22;27613;48.116;11.656;2022-07-10T07:14:52;17.50;99.90
41924;DHT22;27613;48.116;11.656;2022-07-10T07:17:17;17.20;99.90
41924;DHT22;27613;48.116;11.656;2022-07-10T07:19:51;17.10;99.90
41924;DHT22;27613;48.116;11.656;2022-07-10T07:22:36;17.00;99.90
41924;DHT22;27613;48.116;11.656;2022-07-10T07:25:20;17.10;99.90
41924;DHT22;27613;48.116;11.656;2022-07-10T07:27:46;17.40;99.90
41924;DHT22;27613;48.116;11.656;2022-07-10T07:30:14;17.80;99.90
41924;DHT22;27613;48.116;11.656;2022-07-10T07:32:41;18.10;99.90
41924;DHT22;27613;48.116;11.656;2022-07-10T07:35:07;17.50;99.90
41924;DHT22;27613;48.116;11.656;2022-07-10T07:40:03;17.20;99.90
41924;DHT22;27613;48.116;11.656;2022-07-10T07:42:29;16.90;99.90
41924;DHT22;27613;48.116;11.656;2022-07-10T07:44:55;16.90;99.90
41924;DHT22;27613;48.116;11.656;2022-07-10T07:47:20;17.00;99.90
41924;DHT22;27613;48.116;11.656;2022-07-10T07:49:46;17.20;99.90
41924;DHT22;27613;48.116;11.656;2022-07-10T07:52:11;17.10;99.90
41924;DHT22;27613;48.116;11.656;2022-07-10T07:54:37;17.10;99.90
41924;DHT22;27613;48.116;11.656;2022-07-10T07:57:03;17.40;99.90
41924;DHT22;27613;48.116;11.656;2022-07-10T07:59:29;17.70;99.90
41924;DHT22;27613;48.116;11.656;2022-07-10T08:01:54;17.90;99.90
41924;DHT22;27613;48.116;11.656;2022-07-10T08:04:20;18.10;99.90
41924;DHT22;27613;48.116;11.656;2022-07-10T08:06:45;18.10;99.90
41924;DHT22;27613;48.116;11.656;2022-07-10T08:09:11;18.20;98.90
41924;DHT22;27613;48.116;11.656;2022-07-10T08:11:37;18.10;97.70
41924;DHT22;27613;48.116;11.656;2022-07-10T08:14:02;18.20;96.80
41924;DHT22;27613;48.116;11.656;2022-07-10T08:16:28;18.30;97.70
41924;DHT22;27613;48.116;11.656;2022-07-10T08:18:53;18.60;97.00
41924;DHT22;27613;48.116;11.656;2022-07-10T08:21:19;18.70;95.40
41924;DHT22;27613;48.116;11.656;2022-07-10T08:23:44;18.20;96.60
41924;DHT22;27613;48.116;11.656;2022-07-10T08:26:10;18.50;95.80
41924;DHT22;27613;48.116;11.656;2022-07-10T08:28:35;19.10;95.30
41924;DHT22;27613;48.116;11.656;2022-07-10T08:31:01;19.30;93.90
41924;DHT22;27613;48.116;11.656;2022-07-10T08:33:27;19.10;92.00
41924;DHT22;27613;48.116;11.656;2022-07-10T08:35:53;19.40;93.10
41924;DHT22;27613;48.116;11.656;2022-07-10T08:38:24;19.60;92.00
41924;DHT22;27613;48.116;11.656;2022-07-10T08:40:50;19.50;91.40
41924;DHT22;27613;48.116;11.656;2022-07-10T08:43:16;18.90;92.00
41924;DHT22;27613;48.116;11.656;2022-07-10T08:45:42;18.90;91.00
41924;DHT22;27613;48.116;11.656;2022-07-10T08:48:09;19.30;91.30
41924;DHT22;27613;48.116;11.656;2022-07-10T08:50:38;19.10;89.40
41924;DHT22;27613;48.116;11.656;2022-07-10T08:53:22;19.10;90.40
41924;DHT22;27613;48.116;11.656;2022-07-10T08:55:49;18.90;90.50
41924;DHT22;27613;48.116;11.656;2022-07-10T08:58:18;18.60;91.10
41924;DHT22;27613;48.116;11.656;2022-07-10T09:00:45;18.30;91.70
41924;DHT22;27613;48.116;11.656;2022-07-10T09:03:10;18.10;91.20
41924;DHT22;27613;48.116;11.656;2022-07-10T09:05:36;18.40;91.30
41924;DHT22;27613;48.116;11.656;2022-07-10T09:08:02;19.10;91.20
41924;DHT22;27613;48.116;11.656;2022-07-10T09:10:28;19.50;88.70
41924;DHT22;27613;48.116;11.656;2022-07-10T09:12:59;20.10;88.70
41924;DHT22;27613;48.116;11.656;2022-07-10T09:15:26;20.50;87.90
41924;DHT22;27613;48.116;11.656;2022-07-10T09:17:58;21.30;85.90
41924;DHT22;27613;48.116;11.656;2022-07-10T09:20:41;20.40;83.40
41924;DHT22;27613;48.116;11.656;2022-07-10T09:23:20;19.30;87.00
41924;DHT22;27613;48.116;11.656;2022-07-10T09:25:47;18.80;87.80
41924;DHT22;27613;48.116;11.656;2022-07-10T09:28:15;19.40;85.40
41924;DHT22;27613;48.116;11.656;2022-07-10T09:30:41;19.80;83.70
41924;DHT22;27613;48.116;11.656;2022-07-10T09:33:27;20.90;82.90
41924;DHT22;27613;48.116;11.656;2022-07-10T09:35:59;21.90;78.40
41924;DHT22;27613;48.116;11.656;2022-07-10T09:41:12;20.50;76.00
41924;DHT22;27613;48.116;11.656;2022-07-10T09:46:11;21.30;75.50
41924;DHT22;27613;48.116;11.656;2022-07-10T09:48:37;21.70;72.50
41924;DHT22;27613;48.116;11.656;2022-07-10T09:51:05;22.00;71.70
41924;DHT22;27613;48.116;11.656;2022-07-10T09:53:32;21.30;73.40
41924;DHT22;27613;48.116;11.656;2022-07-10T09:56:01;20.80;73.60
41924;DHT22;27613;48.116;11.656;2022-07-10T09:58:29;22.10;72.00
41924;DHT22;27613;48.116;11.656;2022-07-10T10:00:57;22.90;67.20
41924;DHT22;27613;48.116;11.656;2022-07-10T10:03:25;23.00;66.00
41924;DHT22;27613;48.116;11.656;2022-07-10T10:05:55;23.00;66.20
41924;DHT22;27613;48.116;11.656;2022-07-10T10:11:21;22.20;67.90
41924;DHT22;27613;48.116;11.656;2022-07-10T10:13:47;22.80;68.10
41924;DHT22;27613;48.116;11.656;2022-07-10T10:16:14;23.40;65.80
41924;DHT22;27613;48.116;11.656;2022-07-10T10:18:40;23.00;64.00
41924;DHT22;27613;48.116;11.656;2022-07-10T10:21:28;24.00;60.90
41924;DHT22;27613;48.116;11.656;2022-07-10T10:23:55;25.00;59.50
41924;DHT22;27613;48.116;11.656;2022-07-10T10:26:24;25.80;55.90
41924;DHT22;27613;48.116;11.656;2022-07-10T10:28:52;25.00;57.60
41924;DHT22;27613;48.116;11.656;2022-07-10T10:31:19;23.90;61.20
41924;DHT22;27613;48.116;11.656;2022-07-10T10:33:46;23.20;64.00
41924;DHT22;27613;48.116;11.656;2022-07-10T10:36:15;23.70;60.50
41924;DHT22;27613;48.116;11.656;2022-07-10T10:41:28;23.90;59.30
41924;DHT22;27613;48.116;11.656;2022-07-10T10:44:20;22.80;62.00
41924;DHT22;27613;48.116;11.656;2022-07-10T10:49:15;24.60;59.80
41924;DHT22;27613;48.116;11.656;2022-07-10T10:52:04;26.00;56.60
41924;DHT22;27613;48.116;11.656;2022-07-10T10:59:58;24.40;57.30
41924;DHT22;27613;48.116;11.656;2022-07-10T11:02:32;25.40;58.20
41924;DHT22;27613;48.116;11.656;2022-07-10T11:10:34;23.60;61.80
41924;DHT22;27613;48.116;11.656;2022-07-10T11:13:11;22.70;61.80
41924;DHT22;27613;48.116;11.656;2022-07-10T11:15:42;22.90;60.20
41924;DHT22;27613;48.116;11.656;2022-07-10T11:20:35;25.30;56.50
41924;DHT22;27613;48.116;11.656;2022-07-10T11:23:41;24.70;57.70
41924;DHT22;27613;48.116;11.656;2022-07-10T11:26:15;23.90;59.60
41924;DHT22;27613;48.116;11.656;2022-07-10T11:31:21;22.90;60.00
41924;DHT22;27613;48.116;11.656;2022-07-10T11:33:48;22.20;61.70
41924;DHT22;27613;48.116;11.656;2022-07-10T11:36:19;22.40;61.90
41924;DHT22;27613;48.116;11.656;2022-07-10T11:38:45;22.20;63.50
41924;DHT22;27613;48.116;11.656;2022-07-10T11:41:19;22.60;63.00
41924;DHT22;27613;48.116;11.656;2022-07-10T11:43:57;22.50;62.10
41924;DHT22;27613;48.116;11.656;2022-07-10T11:46:28;22.50;62.30
41924;DHT22;27613;48.116;11.656;2022-07-10T11:48:55;22.90;59.70
41924;DHT22;27613;48.116;11.656;2022-07-10T11:51:27;24.40;57.10
41924;DHT22;27613;48.116;11.656;2022-07-10T11:54:06;25.10;55.60
41924;DHT22;27613;48.116;11.656;2022-07-10T11:56:34;25.60;56.10
41924;DHT22;27613;48.116;11.656;2022-07-10T11:59:02;25.20;57.60
41924;DHT22;27613;48.116;11.656;2022-07-10T12:01:29;24.90;56.70
41924;DHT22;27613;48.116;11.656;2022-07-10T12:03:57;24.70;57.30
41924;DHT22;27613;48.116;11.656;2022-07-10T12:06:23;24.50;58.10
41924;DHT22;27613;48.116;11.656;2022-07-10T12:08:49;26.00;56.80
41924;DHT22;27613;48.116;11.656;2022-07-10T12:11:16;26.10;55.20
41924;DHT22;27613;48.116;11.656;2022-07-10T12:13:43;25.80;54.80
41924;DHT22;27613;48.116;11.656;2022-07-10T12:16:08;25.40;56.20
41924;DHT22;27613;48.116;11.656;2022-07-10T12:18:34;25.10;55.50
41924;DHT22;27613;48.116;11.656;2022-07-10T12:21:00;25.50;55.40
41924;DHT22;27613;48.116;11.656;2022-07-10T12:23:26;25.60;55.60
41924;DHT22;27613;48.116;11.656;2022-07-10T12:25:53;25.70;54.50
41924;DHT22;27613;48.116;11.656;2022-07-10T12:28:21;25.40;55.00
41924;DHT22;27613;48.116;11.656;2022-07-10T12:30:48;25.00;56.40
41924;DHT22;27613;48.116;11.656;2022-07-10T12:33:21;24.60;56.10
41924;DHT22;27613;48.116;11.656;2022-07-10T12:35:53;24.60;56.80
41924;DHT22;27613;48.116;11.656;2022-07-10T12:38:28;23.80;57.90
41924;DHT22;27613;48.116;11.656;2022-07-10T12:41:10;23.30;59.20
41924;DHT22;27613;48.116;11.656;2022-07-10T12:43:36;23.00;59.30
41924;DHT22;27613;48.116;11.656;2022-07-10T12:46:17;22.60;59.60
41924;DHT22;27613;48.116;11.656;2022-07-10T12:51:28;23.20;59.00
41924;DHT22;27613;48.116;11.656;2022-07-10T12:53:54;23.40;60.10
41924;DHT22;27613;48.116;11.656;2022-07-10T12:56:33;23.60;59.30
41924;DHT22;27613;48.116;11.656;2022-07-10T12:59:01;23.80;57.80
41924;DHT22;27613;48.116;11.656;2022-07-10T13:01:28;22.70;59.30
41924;DHT22;27613;48.116;11.656;2022-07-10T13:04:01;22.80;59.80
41924;DHT22;27613;48.116;11.656;2022-07-10T13:06:28;23.10;59.80
41924;DHT22;27613;48.116;11.656;2022-07-10T13:08:54;23.60;59.60
41924;DHT22;27613;48.116;11.656;2022-07-10T13:11:20;24.20;57.50
41924;DHT22;27613;48.116;11.656;2022-07-10T13:13:46;24.80;56.60
41924;DHT22;27613;48.116;11.656;2022-07-10T13:16:12;25.80;55.60
41924;DHT22;27613;48.116;11.656;2022-07-10T13:18:37;25.30;56.20
41924;DHT22;27613;48.116;11.656;2022-07-10T13:21:03;24.50;57.60
41924;DHT22;27613;48.116;11.656;2022-07-10T13:23:29;24.30;56.90
41924;DHT22;27613;48.116;11.656;2022-07-10T13:25:56;24.40;57.40
41924;DHT22;27613;48.116;11.656;2022-07-10T13:28:22;25.40;55.00
41924;DHT22;27613;48.116;11.656;2022-07-10T13:30:48;26.40;53.40
41924;DHT22;27613;48.116;11.656;2022-07-10T13:33:13;25.60;54.50
41924;DHT22;27613;48.116;11.656;2022-07-10T13:35:39;26.00;54.10
41924;DHT22;27613;48.116;11.656;2022-07-10T13:38:06;27.10;53.50
41924;DHT22;27613;48.116;11.656;2022-07-10T13:40:34;27.00;51.40
41924;DHT22;27613;48.116;11.656;2022-07-10T13:43:00;26.90;51.80
41924;DHT22;27613;48.116;11.656;2022-07-10T13:45:26;25.60;52.70
41924;DHT22;27613;48.116;11.656;2022-07-10T13:47:57;24.80;54.00
41924;DHT22;27613;48.116;11.656;2022-07-10T13:50:23;25.60;53.20
41924;DHT22;27613;48.116;11.656;2022-07-10T13:52:49;25.90;53.60
41924;DHT22;27613;48.116;11.656;2022-07-10T13:55:15;27.20;52.00
41924;DHT22;27613;48.116;11.656;2022-07-10T13:57:41;26.90;50.60
41924;DHT22;27613;48.116;11.656;2022-07-10T14:00:07;27.10;51.60
41924;DHT22;27613;48.116;11.656;2022-07-10T14:02:33;26.80;49.50
41924;DHT22;27613;48.116;11.656;2022-07-10T14:05:01;26.00;52.10
41924;DHT22;27613;48.116;11.656;2022-07-10T14:07:26;26.60;51.40
41924;DHT22;27613;48.116;11.656;2022-07-10T14:09:52;26.70;50.60
41924;DHT22;27613;48.116;11.656;2022-07-10T14:12:17;25.80;51.70
41924;DHT22;27613;48.116;11.656;2022-07-10T14:14:43;26.50;51.80
41924;DHT22;27613;48.116;11.656;2022-07-10T14:17:08;27.60;50.80
41924;DHT22;27613;48.116;11.656;2022-07-10T14:19:34;27.60;50.60
41924;DHT22;27613;48.116;11.656;2022-07-10T14:22:00;28.00;48.80
41924;DHT22;27613;48.116;11.656;2022-07-10T14:24:26;27.60;47.90
41924;DHT22;27613;48.116;11.656;2022-07-10T14:26:52;27.80;49.10
41924;DHT22;27613;48.116;11.656;2022-07-10T14:29:19;28.50;47.50
41924;DHT22;27613;48.116;11.656;2022-07-10T14:31:45;28.60;48.20
41924;DHT22;27613;48.116;11.656;2022-07-10T14:34:13;27.90;46.80
41924;DHT22;27613;48.116;11.656;2022-07-10T14:36:39;26.70;50.30
41924;DHT22;27613;48.116;11.656;2022-07-10T14:39:04;28.00;48.90
41924;DHT22;27613;48.116;11.656;2022-07-10T14:41:30;27.90;48.00
41924;DHT22;27613;48.116;11.656;2022-07-10T14:43:56;26.50;48.80
41924;DHT22;27613;48.116;11.656;2022-07-10T14:46:21;26.90;51.10
41924;DHT22;27613;48.116;11.656;2022-07-10T14:48:47;27.00;50.70
41924;DHT22;27613;48.116;11.656;2022-07-10T14:51:13;27.10;50.10
41924;DHT22;27613;48.116;11.656;2022-07-10T14:53:39;27.10;49.40
41924;DHT22;27613;48.116;11.656;2022-07-10T14:56:07;27.10;49.60
41924;DHT22;27613;48.116;11.656;2022-07-10T14:58:33;27.50;47.90
41924;DHT22;27613;48.116;11.656;2022-07-10T15:00:58;26.90;50.00
41924;DHT22;27613;48.116;11.656;2022-07-10T15:03:25;26.30;50.80
41924;DHT22;27613;48.116;11.656;2022-07-10T15:05:51;26.30;51.00
41924;DHT22;27613;48.116;11.656;2022-07-10T15:08:21;26.60;49.20
41924;DHT22;27613;48.116;11.656;2022-07-10T15:10:46;27.10;50.70
41924;DHT22;27613;48.116;11.656;2022-07-10T15:13:13;26.80;50.60
41924;DHT22;27613;48.116;11.656;2022-07-10T15:15:39;27.90;46.50
41924;DHT22;27613;48.116;11.656;2022-07-10T15:18:04;28.20;47.70
41924;DHT22;27613;48.116;11.656;2022-07-10T15:20:30;28.10;45.90
41924;DHT22;27613;48.116;11.656;2022-07-10T15:22:55;27.60;47.00
41924;DHT22;27613;48.116;11.656;2022-07-10T15:25:21;27.60;46.30
41924;DHT22;27613;48.116;11.656;2022-07-10T15:27:47;27.80;47.10
41924;DHT22;27613;48.116;11.656;2022-07-10T15:30:12;27.60;47.60
41924;DHT22;27613;48.116;11.656;2022-07-10T15:32:39;27.50;46.10
41924;DHT22;27613;48.116;11.656;2022-07-10T15:35:05;27.70;47.60
41924;DHT22;27613;48.116;11.656;2022-07-10T15:37:32;27.50;47.20
41924;DHT22;27613;48.116;11.656;2022-07-10T15:39:57;26.70;47.10
41924;DHT22;27613;48.116;11.656;2022-07-10T15:42:23;27.30;48.70
41924;DHT22;27613;48.116;11.656;2022-07-10T15:44:49;27.00;47.60
41924;DHT22;27613;48.116;11.656;2022-07-10T15:47:14;27.10;47.20
41924;DHT22;27613;48.116;11.656;2022-07-10T15:49:40;27.10;46.30